Time;durP1;ratioP1;P1;durP2;ratioP2;P2;SDS_P1;SDS_P2;PMS_P1;PMS_P2;Temp;Humidity;BMP_temperature;BMP_pressure;BME280_temperature;BME280_humidity;BME280_pressure;Samples;Min_cycle;Max_cycle;Signal;HPM_P1;HPM_P2
2023/01/01 00:00:50;;;;;;;54.47;28.70;;;9.10;94.70;;;;;;5103681;28;20557;-83
2023/01/01 00:03:18;;;;;;;57.57;30.60;;;9.10;94.60;;;;;;5102202;28;20193;-83
2023/01/01 00:05:47;;;;;;;74.93;36.63;;;9.10;94.70;;;;;;5111575;28;20224;-83
2023/01/01 00:08:15;;;;;;;164.33;69.10;;;9.10;94.60;;;;;;5102651;28;20643;-84
2023/01/01 00:10:43;;;;;;;196.33;80.33;;;9.10;94.60;;;;;;5113844;28;20208;-83
2023/01/01 00:13:15;;;;;;;118.83;52.30;;;9.10;94.60;;;;;;5097322;28;20199;-81
2023/01/01 00:15:43;;;;;;;69.93;34.67;;;9.10;94.70;;;;;;5107137;28;20201;-84
2023/01/01 00:18:11;;;;;;;71.13;33.27;;;9.10;94.50;;;;;;5105355;28;20192;-83
2023/01/01 00:20:40;;;;;;;83.07;36.07;;;9.10;94.50;;;;;;5108974;28;20197;-83
2023/01/01 00:23:08;;;;;;;58.50;30.77;;;9.10;94.40;;;;;;5098796;27;20198;-84
2023/01/01 00:25:39;;;;;;;65.07;30.73;;;9.10;94.50;;;;;;5101436;28;20193;-84
2023/01/01 00:28:08;;;;;;;57.67;29.43;;;9.10;94.40;;;;;;5105498;28;20209;-83
2023/01/01 00:30:41;;;;;;;58.00;28.10;;;9.10;94.40;;;;;;5105630;28;20649;-83
2023/01/01 00:33:10;;;;;;;57.17;28.03;;;9.10;94.60;;;;;;5096295;28;20189;-83
2023/01/01 00:35:38;;;;;;;73.77;35.37;;;9.00;94.70;;;;;;5096921;27;20497;-81
2023/01/01 00:38:07;;;;;;;58.07;28.70;;;9.00;94.50;;;;;;5102001;28;20220;-83
2023/01/01 00:40:36;;;;;;;57.87;28.80;;;9.00;94.50;;;;;;5109864;27;20193;-84
2023/01/01 00:43:04;;;;;;;52.20;28.30;;;9.00;94.40;;;;;;5099488;28;20655;-83
2023/01/01 00:45:33;;;;;;;49.80;26.73;;;9.00;94.40;;;;;;5096739;27;20258;-85
2023/01/01 00:48:03;;;;;;;55.67;27.87;;;9.00;94.30;;;;;;5101962;28;20259;-85
2023/01/01 00:50:31;;;;;;;57.33;27.10;;;9.00;94.30;;;;;;5109151;28;20614;-83
2023/01/01 00:52:59;;;;;;;56.77;28.10;;;9.00;94.20;;;;;;5099332;28;20205;-84
2023/01/01 00:55:28;;;;;;;62.43;28.20;;;9.00;94.10;;;;;;5105072;28;20205;-84
2023/01/01 00:57:57;;;;;;;58.75;29.67;;;9.00;94.10;;;;;;5096205;28;20906;-84
2023/01/01 01:00:25;;;;;;;53.57;26.67;;;9.00;94.10;;;;;;5104466;28;20246;-83
2023/01/01 01:02:53;;;;;;;51.80;26.43;;;9.00;94.10;;;;;;5112123;27;20205;-82
2023/01/01 01:05:23;;;;;;;50.00;26.63;;;9.00;94.00;;;;;;5100629;28;20194;-82
2023/01/01 01:07:52;;;;;;;55.30;26.30;;;9.00;94.00;;;;;;5094592;27;20210;-83
2023/01/01 01:10:21;;;;;;;53.88;29.95;;;9.00;93.90;;;;;;5100895;28;20935;-83
2023/01/01 01:12:49;;;;;;;54.20;26.30;;;9.00;93.90;;;;;;5105175;28;20653;-84
2023/01/01 01:15:18;;;;;;;53.77;27.53;;;9.00;93.90;;;;;;5103128;28;20397;-83
2023/01/01 01:17:47;;;;;;;45.63;25.37;;;9.00;93.80;;;;;;5099320;27;20273;-84
2023/01/01 01:20:15;;;;;;;51.57;27.93;;;9.00;93.80;;;;;;5106307;28;20200;-83
2023/01/01 01:22:45;;;;;;;54.30;29.57;;;9.00;93.80;;;;;;5096524;28;20456;-83
2023/01/01 01:25:13;;;;;;;54.20;27.23;;;8.90;94.30;;;;;;5100516;28;20201;-84
2023/01/01 01:27:42;;;;;;;49.30;27.50;;;8.90;93.90;;;;;;5097694;28;20659;-81
2023/01/01 01:30:11;;;;;;;59.73;27.80;;;8.90;93.80;;;;;;5106510;28;20221;-83
2023/01/01 01:32:39;;;;;;;51.97;26.53;;;8.90;93.80;;;;;;5102271;27;20189;-80
2023/01/01 01:35:08;;;;;;;53.20;26.53;;;8.90;93.70;;;;;;5103068;28;20657;-83
2023/01/01 01:37:36;;;;;;;51.30;26.30;;;8.90;93.70;;;;;;5106171;28;20261;-82
2023/01/01 01:40:08;;;;;;;54.67;26.57;;;8.90;93.70;;;;;;5098462;28;20190;-83
2023/01/01 01:42:36;;;;;;;51.73;25.17;;;8.90;93.70;;;;;;5099720;28;20665;-81
2023/01/01 01:45:06;;;;;;;54.57;27.53;;;8.80;93.70;;;;;;5104001;28;20596;-82
2023/01/01 01:47:38;;;;;;;56.72;30.60;;;8.80;93.70;;;;;;5103363;27;20444;-82
2023/01/01 01:50:11;;;;;;;57.13;26.90;;;8.80;94.00;;;;;;5094963;28;20220;-82
2023/01/01 01:52:47;;;;;;;55.80;27.60;;;8.80;93.90;;;;;;5095716;28;20261;-80
2023/01/01 01:55:17;;;;;;;52.30;26.67;;;8.80;93.90;;;;;;5106180;28;20638;-82
2023/01/01 01:57:46;;;;;;;55.67;27.23;;;8.80;93.80;;;;;;5098907;28;20205;-83
2023/01/01 02:00:15;;;;;;;55.03;27.57;;;8.80;93.70;;;;;;5092418;28;20602;-82
2023/01/01 02:02:51;;;;;;;52.50;27.07;;;8.70;93.70;;;;;;5101495;28;20305;-82
2023/01/01 02:05:21;;;;;;;49.83;25.90;;;8.70;93.70;;;;;;5098972;28;20225;-82
2023/01/01 02:07:51;;;;;;;52.63;26.27;;;8.70;93.80;;;;;;5100385;28;20615;-84
2023/01/01 02:10:21;;;;;;;58.30;30.00;;;8.60;93.90;;;;;;5094463;28;20490;-83
2023/01/01 02:12:49;;;;;;;50.57;25.93;;;8.60;94.10;;;;;;5106554;28;20211;-83
2023/01/01 02:15:18;;;;;;;51.50;25.83;;;8.60;94.10;;;;;;5105460;28;20197;-83
2023/01/01 02:17:56;;;;;;;48.63;24.87;;;8.60;94.20;;;;;;5104269;28;20250;-81
2023/01/01 02:20:33;;;;;;;51.67;25.43;;;8.50;94.10;;;;;;5101547;28;20261;-83
2023/01/01 02:23:32;;;;;;;54.58;29.33;;;8.50;94.20;;;;;;5108866;28;20448;-84
2023/01/01 02:26:37;;;;;;;50.83;25.30;;;8.40;94.40;;;;;;5100283;28;20201;-82
2023/01/01 02:29:16;;;;;;;49.30;25.40;;;8.40;94.40;;;;;;5095359;28;20216;-82
2023/01/01 02:31:49;;;;;;;54.23;26.87;;;8.40;94.50;;;;;;5096971;28;20533;-79
2023/01/01 02:34:21;;;;;;;57.10;30.30;;;8.30;94.50;;;;;;5097243;28;20435;-83
2023/01/01 02:36:53;;;;;;;53.83;27.10;;;8.30;94.60;;;;;;5101426;28;20185;-82
2023/01/01 02:39:26;;;;;;;49.03;26.70;;;8.20;94.60;;;;;;5099700;28;20730;-83
2023/01/01 02:41:57;;;;;;;56.37;28.07;;;8.20;94.60;;;;;;5099538;28;20185;-84
2023/01/01 02:44:30;;;;;;;55.57;27.80;;;8.10;94.60;;;;;;5102077;28;20549;-82
2023/01/01 02:47:07;;;;;;;52.57;27.60;;;8.10;94.60;;;;;;5099598;28;20189;-81
2023/01/01 02:49:41;;;;;;;56.87;26.77;;;8.10;94.70;;;;;;5094979;28;20228;-82
2023/01/01 02:52:17;;;;;;;54.20;26.70;;;8.00;94.80;;;;;;5104844;27;20189;-83
2023/01/01 02:54:54;;;;;;;54.33;27.87;;;8.00;94.80;;;;;;5101752;28;20721;-82
2023/01/01 02:57:33;;;;;;;61.20;27.40;;;8.00;95.00;;;;;;5109057;27;20432;-83
2023/01/01 03:00:18;;;;;;;54.93;26.43;;;7.90;95.20;;;;;;5100677;28;20189;-80
2023/01/01 03:03:08;;;;;;;59.43;27.80;;;7.90;95.50;;;;;;5109773;28;20229;-81
2023/01/01 03:08:31;;;;;;;51.93;26.00;;;7.90;96.00;;;;;;5099460;28;20193;-81
2023/01/01 03:11:04;;;;;;;62.43;31.37;;;7.80;96.20;;;;;;5098199;28;20523;-82
2023/01/01 03:13:39;;;;;;;55.47;26.97;;;7.90;96.30;;;;;;5106477;27;20196;-80
2023/01/01 03:16:14;;;;;;;54.67;26.53;;;7.90;96.40;;;;;;5111485;28;20254;-82
2023/01/01 03:18:49;;;;;;;52.63;26.50;;;7.90;96.50;;;;;;5098667;28;20199;-81
2023/01/01 03:21:21;;;;;;;58.63;28.58;;;8.00;96.60;;;;;;5103676;27;20391;-81
2023/01/01 03:23:53;;;;;;;56.40;27.47;;;8.00;96.50;;;;;;5108248;28;20186;-82
2023/01/01 03:26:26;;;;;;;52.93;26.33;;;8.10;96.50;;;;;;5114268;28;20288;-81
2023/01/01 03:28:58;;;;;;;49.97;27.53;;;8.00;96.40;;;;;;5097332;28;20650;-83
2023/01/01 03:31:28;;;;;;;49.67;26.43;;;8.00;96.40;;;;;;5108337;27;20209;-80
2023/01/01 03:34:03;;;;;;;63.07;31.37;;;8.00;96.30;;;;;;5105174;28;20524;-79
2023/01/01 03:36:35;;;;;;;52.47;27.53;;;8.00;96.20;;;;;;5096327;28;20193;-82
2023/01/01 03:39:08;;;;;;;53.67;26.53;;;8.00;96.10;;;;;;5099444;28;20224;-81
2023/01/01 03:41:40;;;;;;;61.27;27.37;;;7.90;95.90;;;;;;5108222;28;20227;-83
2023/01/01 03:44:13;;;;;;;55.83;25.87;;;8.00;95.80;;;;;;5098792;28;20224;-82
2023/01/01 03:46:43;;;;;;;59.35;31.17;;;8.00;95.70;;;;;;5104642;28;20452;-83
2023/01/01 03:49:12;;;;;;;49.30;26.53;;;8.00;95.80;;;;;;5104562;28;20205;-82
2023/01/01 03:51:58;;;;;;;47.43;24.53;;;8.00;95.70;;;;;;5101419;28;20291;-83
2023/01/01 03:54:36;;;;;;;47.30;25.17;;;8.10;95.60;;;;;;5102088;28;20785;-83
2023/01/01 03:57:10;;;;;;;49.30;24.67;;;8.10;95.50;;;;;;5109590;27;20637;-82
2023/01/01 03:59:44;;;;;;;50.80;27.23;;;8.10;95.40;;;;;;5105744;27;20638;-83
2023/01/01 04:02:18;;;;;;;47.97;26.27;;;8.10;95.30;;;;;;5107861;28;20601;-83
2023/01/01 04:04:48;;;;;;;48.77;24.67;;;8.10;95.30;;;;;;5100230;28;20273;-83
2023/01/01 04:07:17;;;;;;;54.70;25.47;;;8.10;95.20;;;;;;5105864;28;20209;-84
2023/01/01 04:09:50;;;;;;;52.60;25.50;;;8.10;95.10;;;;;;5097188;28;20649;-83
2023/01/01 04:12:19;;;;;;;49.47;24.43;;;8.10;95.10;;;;;;5100461;28;20706;-82
2023/01/01 04:14:47;;;;;;;50.47;25.07;;;8.10;95.10;;;;;;5106256;28;20197;-83
2023/01/01 04:17:17;;;;;;;59.57;25.60;;;8.10;94.90;;;;;;5105565;28;20201;-81
2023/01/01 04:19:45;;;;;;;49.83;25.73;;;8.10;94.90;;;;;;5105523;27;20205;-82
2023/01/01 04:22:22;;;;;;;56.57;25.87;;;8.10;94.90;;;;;;5100037;28;20193;-83
2023/01/01 04:24:50;;;;;;;47.43;25.37;;;8.10;94.90;;;;;;5100496;27;20202;-84
2023/01/01 04:27:19;;;;;;;51.17;25.30;;;8.10;94.80;;;;;;5107221;28;20201;-83
2023/01/01 04:29:47;;;;;;;54.60;25.03;;;8.10;94.80;;;;;;5101601;28;20616;-83
2023/01/01 04:32:17;;;;;;;50.67;24.47;;;8.20;94.80;;;;;;5108245;27;20220;-83
2023/01/01 04:34:45;;;;;;;49.63;25.83;;;8.20;94.70;;;;;;5095831;28;20208;-83
2023/01/01 04:37:14;;;;;;;49.30;25.37;;;8.20;94.70;;;;;;5115913;27;20218;-83
2023/01/01 04:39:42;;;;;;;54.03;26.27;;;8.20;94.60;;;;;;5104310;27;20670;-83
2023/01/01 04:42:10;;;;;;;52.30;26.77;;;8.20;94.60;;;;;;5109593;27;20708;-83
2023/01/01 04:44:39;;;;;;;52.13;26.37;;;8.20;94.60;;;;;;5106390;28;20205;-83
2023/01/01 04:47:08;;;;;;;57.50;30.33;;;8.20;94.60;;;;;;5117119;27;20495;-80
2023/01/01 04:49:38;;;;;;;52.57;26.83;;;8.20;94.70;;;;;;5101108;27;20250;-82
2023/01/01 04:52:06;;;;;;;56.97;27.03;;;8.20;94.70;;;;;;5099115;27;20693;-82
2023/01/01 04:54:34;;;;;;;50.67;26.00;;;8.20;94.70;;;;;;5101665;27;20254;-82
2023/01/01 04:57:03;;;;;;;52.03;26.20;;;8.20;94.70;;;;;;5102409;27;20210;-83
2023/01/01 04:59:31;;;;;;;59.87;31.13;;;8.20;94.60;;;;;;5106381;28;20428;-83
2023/01/01 05:02:00;;;;;;;51.90;26.37;;;8.20;94.70;;;;;;5107445;27;20445;-83
2023/01/01 05:04:28;;;;;;;54.77;27.07;;;8.20;94.60;;;;;;5099307;28;20197;-80
2023/01/01 05:06:58;;;;;;;54.27;27.80;;;8.20;94.50;;;;;;5096232;27;20202;-83
2023/01/01 05:09:26;;;;;;;56.07;28.03;;;8.20;94.40;;;;;;5114835;27;20610;-84
2023/01/01 05:11:55;;;;;;;55.97;26.80;;;8.20;94.30;;;;;;5114578;27;20317;-83
2023/01/01 05:14:24;;;;;;;52.30;27.13;;;8.20;94.20;;;;;;5098799;27;20193;-83
2023/01/01 05:16:53;;;;;;;56.03;27.23;;;8.20;94.20;;;;;;5090274;27;20247;-82
2023/01/01 05:19:21;;;;;;;47.40;26.13;;;8.20;94.10;;;;;;5096491;28;20194;-82
2023/01/01 05:21:50;;;;;;;49.43;25.93;;;8.10;94.00;;;;;;5093870;27;20201;-83
2023/01/01 05:24:19;;;;;;;56.92;30.60;;;8.10;94.00;;;;;;5101298;27;20803;-83
2023/01/01 05:26:48;;;;;;;54.50;27.33;;;8.10;94.30;;;;;;5109160;28;20247;-86
2023/01/01 05:29:16;;;;;;;57.90;26.87;;;8.10;94.30;;;;;;5100241;28;20198;-84
2023/01/01 05:31:45;;;;;;;52.47;26.87;;;8.10;94.30;;;;;;5104705;28;20212;-82
2023/01/01 05:34:14;;;;;;;53.17;26.80;;;8.10;94.60;;;;;;5097194;28;20276;-83
2023/01/01 05:36:42;;;;;;;56.95;31.48;;;8.00;94.20;;;;;;5096086;27;20940;-83
2023/01/01 05:39:12;;;;;;;52.17;28.43;;;8.00;94.40;;;;;;5105343;28;20197;-84
2023/01/01 05:41:42;;;;;;;51.97;26.53;;;8.00;94.40;;;;;;5099571;28;20657;-83
2023/01/01 05:44:10;;;;;;;55.13;26.37;;;8.00;94.40;;;;;;5106220;28;20542;-83
2023/01/01 05:46:39;;;;;;;56.73;26.77;;;8.00;94.50;;;;;;5100599;28;20197;-82
2023/01/01 05:49:11;;;;;;;52.73;27.63;;;7.90;94.50;;;;;;5101201;28;21080;-80
2023/01/01 05:51:39;;;;;;;53.63;27.17;;;7.90;94.60;;;;;;5096576;27;20290;-84
2023/01/01 05:54:06;;;;;;;52.93;26.10;;;7.90;94.80;;;;;;5113944;27;20714;-81
2023/01/01 05:56:35;;;;;;;54.83;26.27;;;7.80;94.70;;;;;;5116298;27;20193;-83
2023/01/01 05:59:05;;;;;;;61.10;31.13;;;7.80;94.80;;;;;;5105854;28;20843;-82
2023/01/01 06:01:34;;;;;;;56.30;28.33;;;7.80;94.80;;;;;;5109135;28;20197;-83
2023/01/01 06:04:12;;;;;;;55.90;27.93;;;7.80;94.90;;;;;;5107611;28;20192;-82
2023/01/01 06:06:40;;;;;;;55.23;28.70;;;7.80;94.90;;;;;;5108469;28;20189;-83
2023/01/01 06:09:10;;;;;;;51.60;27.03;;;7.80;95.00;;;;;;5100800;28;20200;-82
2023/01/01 06:11:39;;;;;;;60.78;32.08;;;7.80;95.00;;;;;;5104796;28;20440;-85
2023/01/01 06:14:08;;;;;;;54.53;27.17;;;7.80;95.00;;;;;;5101734;28;20204;-83
2023/01/01 06:16:37;;;;;;;50.73;27.13;;;7.80;95.10;;;;;;5107718;28;20216;-88
2023/01/01 06:19:05;;;;;;;55.53;27.97;;;7.80;95.20;;;;;;5105606;28;20197;-82
2023/01/01 06:21:33;;;;;;;52.93;28.33;;;7.80;95.20;;;;;;5105824;28;20197;-82
2023/01/01 06:24:02;;;;;;;59.03;29.10;;;7.90;95.30;;;;;;5111211;27;20606;-83
2023/01/01 06:26:31;;;;;;;55.70;28.63;;;7.90;95.40;;;;;;5113968;27;20201;-82
2023/01/01 06:29:01;;;;;;;54.03;27.60;;;7.90;95.50;;;;;;5105800;28;20197;-81
2023/01/01 06:31:31;;;;;;;58.70;27.97;;;7.90;95.50;;;;;;5112646;27;20213;-82
2023/01/01 06:34:07;;;;;;;58.93;29.70;;;7.90;95.50;;;;;;5124178;27;20196;-82
2023/01/01 06:36:36;;;;;;;58.07;31.50;;;7.90;95.80;;;;;;5119664;27;20484;-81
2023/01/01 06:39:05;;;;;;;55.20;29.03;;;7.90;95.90;;;;;;5109911;27;20650;-83
2023/01/01 06:41:33;;;;;;;50.20;28.40;;;7.90;95.80;;;;;;5113130;27;20188;-79
2023/01/01 06:44:02;;;;;;;50.60;26.37;;;7.90;95.80;;;;;;5110970;27;20197;-83
2023/01/01 06:46:33;;;;;;;54.97;27.77;;;8.00;95.70;;;;;;5116576;27;20201;-83
2023/01/01 06:49:03;;;;;;;58.50;31.52;;;8.00;95.70;;;;;;5111140;27;20612;-83
2023/01/01 06:51:33;;;;;;;51.47;27.57;;;8.00;95.90;;;;;;5109491;28;20237;-82
2023/01/01 06:54:03;;;;;;;49.17;27.60;;;8.10;95.90;;;;;;5111018;27;20200;-80
2023/01/01 06:56:32;;;;;;;51.03;25.97;;;8.10;95.90;;;;;;5114790;27;20189;-82
2023/01/01 06:59:02;;;;;;;49.90;25.73;;;8.10;96.20;;;;;;5111284;27;20228;-82
2023/01/01 07:01:34;;;;;;;55.65;30.55;;;8.10;95.80;;;;;;5107228;28;20433;-80
2023/01/01 07:04:06;;;;;;;51.37;27.03;;;8.20;95.90;;;;;;5105731;27;20189;-83
2023/01/01 07:06:35;;;;;;;56.50;27.63;;;8.20;95.80;;;;;;5114392;27;20615;-83
2023/01/01 07:09:04;;;;;;;60.23;29.23;;;8.20;95.70;;;;;;5114962;27;20636;-81
2023/01/01 07:11:33;;;;;;;55.27;28.17;;;8.30;95.70;;;;;;5114513;27;20232;-82
2023/01/01 07:14:02;;;;;;;51.40;25.63;;;8.30;95.70;;;;;;5110866;27;20222;-81
2023/01/01 07:16:31;;;;;;;52.87;26.77;;;8.30;95.70;;;;;;5108790;27;20194;-82
2023/01/01 07:19:00;;;;;;;47.70;26.03;;;8.40;95.80;;;;;;5102687;28;20650;-82
2023/01/01 07:21:31;;;;;;;50.17;26.10;;;8.40;95.80;;;;;;5109962;27;20645;-81
2023/01/01 07:24:01;;;;;;;54.47;27.07;;;8.50;95.90;;;;;;5111234;27;20250;-81
2023/01/01 07:26:30;;;;;;;52.07;27.13;;;8.50;95.90;;;;;;5104424;27;20224;-81
2023/01/01 07:28:59;;;;;;;50.80;26.10;;;8.50;96.00;;;;;;5111506;27;20251;-82
2023/01/01 07:31:38;;;;;;;47.50;24.83;;;8.60;96.00;;;;;;5104841;27;20557;-83
2023/01/01 07:34:07;;;;;;;52.27;27.03;;;8.70;96.00;;;;;;5112636;27;20225;-82
2023/01/01 07:36:35;;;;;;;53.33;26.73;;;8.70;96.00;;;;;;5096190;27;20193;-82
2023/01/01 07:39:04;;;;;;;50.23;26.03;;;8.80;96.00;;;;;;5106179;27;20192;-82
2023/01/01 07:41:34;;;;;;;50.80;26.03;;;8.80;96.40;;;;;;5108559;27;20194;-83
2023/01/01 07:44:02;;;;;;;50.07;25.67;;;8.80;96.10;;;;;;5101792;28;20213;-80
2023/01/01 07:46:31;;;;;;;56.73;26.30;;;8.90;96.00;;;;;;5109072;27;20648;-83
2023/01/01 07:49:00;;;;;;;55.03;26.93;;;8.90;96.00;;;;;;5103251;27;20966;-82
2023/01/01 07:51:29;;;;;;;53.30;27.77;;;8.90;96.10;;;;;;5097686;28;20716;-80
2023/01/01 07:53:57;;;;;;;55.00;27.17;;;9.00;96.10;;;;;;5104360;28;20213;-84
2023/01/01 07:56:34;;;;;;;51.13;27.20;;;9.00;96.10;;;;;;5101510;28;20674;-81
2023/01/01 07:59:03;;;;;;;55.17;26.97;;;9.10;96.10;;;;;;5099464;28;20202;-82
2023/01/01 08:01:31;;;;;;;55.97;28.00;;;9.20;96.10;;;;;;5107983;27;20670;-81
2023/01/01 08:04:01;;;;;;;54.63;27.53;;;9.30;96.10;;;;;;5112681;27;20552;-80
2023/01/01 08:06:29;;;;;;;58.17;27.50;;;9.30;96.10;;;;;;5093443;27;20943;-82
2023/01/01 08:08:57;;;;;;;52.50;27.80;;;9.30;96.20;;;;;;5104822;27;20298;-81
2023/01/01 08:11:26;;;;;;;55.90;28.27;;;9.40;96.20;;;;;;5100963;27;20653;-84
2023/01/01 08:13:54;;;;;;;55.50;28.07;;;9.50;96.30;;;;;;5107429;27;20303;-80
2023/01/01 08:16:23;;;;;;;55.93;28.00;;;9.60;96.30;;;;;;5109034;27;20670;-83
2023/01/01 08:18:51;;;;;;;55.80;28.30;;;9.60;96.20;;;;;;5110935;27;20247;-84
2023/01/01 08:21:21;;;;;;;54.20;29.47;;;9.70;96.20;;;;;;5109150;27;20212;-83
2023/01/01 08:23:50;;;;;;;58.97;31.85;;;9.80;96.10;;;;;;5111429;27;20424;-82
2023/01/01 08:26:27;;;;;;;59.20;29.07;;;9.90;96.20;;;;;;5110770;27;20197;-84
2023/01/01 08:28:56;;;;;;;48.17;26.43;;;10.00;96.10;;;;;;5107126;27;20661;-83
2023/01/01 08:31:25;;;;;;;53.73;29.47;;;10.10;96.00;;;;;;5095547;28;20838;-81
2023/01/01 08:33:53;;;;;;;54.10;28.63;;;10.20;95.90;;;;;;5095857;27;20208;-83
2023/01/01 08:36:23;;;;;;;59.47;28.23;;;10.20;95.70;;;;;;5095060;27;20208;-82
2023/01/01 08:38:52;;;;;;;53.73;28.70;;;10.30;95.70;;;;;;5103745;27;20193;-82
2023/01/01 08:41:20;;;;;;;48.67;28.23;;;10.40;95.60;;;;;;5094941;28;20279;-82
2023/01/01 08:43:48;;;;;;;52.60;30.20;;;10.50;95.60;;;;;;5106318;27;20552;-83
2023/01/01 08:46:17;;;;;;;52.33;28.43;;;10.50;95.40;;;;;;5102638;28;20610;-83
2023/01/01 08:48:45;;;;;;;58.03;29.50;;;10.60;95.40;;;;;;5106579;27;20189;-81
2023/01/01 08:51:14;;;;;;;56.43;29.40;;;10.70;95.40;;;;;;5098552;27;20306;-84
2023/01/01 08:53:44;;;;;;;53.97;30.13;;;10.70;95.20;;;;;;5097580;28;20217;-82
2023/01/01 08:56:19;;;;;;;53.07;28.93;;;10.70;95.10;;;;;;5097434;28;20209;-82
2023/01/01 08:58:48;;;;;;;53.70;28.77;;;10.80;95.00;;;;;;5094964;28;20541;-84
2023/01/01 09:01:20;;;;;;;52.30;26.03;;;10.80;95.00;;;;;;5097557;27;20236;-82
2023/01/01 09:03:49;;;;;;;52.70;27.53;;;10.90;94.90;;;;;;5096368;27;20189;-83
2023/01/01 09:06:17;;;;;;;56.30;27.03;;;11.00;94.80;;;;;;5090772;27;20194;-81
2023/01/01 09:08:47;;;;;;;49.63;26.40;;;11.00;94.70;;;;;;5102074;27;20197;-82
2023/01/01 09:11:22;;;;;;;49.20;26.87;;;11.20;94.80;;;;;;5096948;27;20209;-80
2023/01/01 09:13:51;;;;;;;53.47;27.20;;;11.20;94.80;;;;;;5095794;28;20216;-82
2023/01/01 09:16:20;;;;;;;54.90;28.20;;;11.30;94.70;;;;;;5104645;27;20570;-81
2023/01/01 09:18:49;;;;;;;49.87;26.33;;;11.40;94.50;;;;;;5098319;28;20232;-80
2023/01/01 09:21:17;;;;;;;49.60;26.67;;;11.50;94.50;;;;;;5102712;27;20243;-81
2023/01/01 09:23:47;;;;;;;51.20;26.67;;;11.60;94.50;;;;;;5103874;28;20190;-82
2023/01/01 09:26:15;;;;;;;47.13;26.70;;;11.70;94.50;;;;;;5119017;27;20196;-80
2023/01/01 09:28:44;;;;;;;48.90;26.60;;;11.90;94.40;;;;;;5103642;27;20436;-80
2023/01/01 09:31:12;;;;;;;48.97;27.03;;;12.00;94.20;;;;;;5096156;27;20246;-81
2023/01/01 09:33:40;;;;;;;51.70;27.00;;;12.00;93.80;;;;;;5104129;28;20244;-81
2023/01/01 09:36:26;;;;;;;46.50;25.90;;;12.10;93.60;;;;;;5096420;27;20200;-80
2023/01/01 09:38:57;;;;;;;49.93;26.37;;;12.20;93.30;;;;;;5108099;27;20192;-82
2023/01/01 09:41:41;;;;;;;47.47;25.23;;;12.30;93.10;;;;;;5118766;27;20197;-81
2023/01/01 09:44:21;;;;;;;52.80;26.47;;;12.40;93.20;;;;;;5111304;27;20280;-80
2023/01/01 09:46:51;;;;;;;48.87;25.77;;;12.50;92.80;;;;;;5094622;27;20201;-81
2023/01/01 09:49:31;;;;;;;45.07;25.60;;;12.60;92.70;;;;;;5097234;27;20247;-81
2023/01/01 09:52:04;;;;;;;50.30;25.80;;;12.70;92.60;;;;;;5099883;27;20281;-81
2023/01/01 09:54:39;;;;;;;50.00;26.48;;;12.80;92.20;;;;;;5101272;27;20451;-84
2023/01/01 09:57:11;;;;;;;50.60;26.27;;;12.90;92.20;;;;;;5106717;27;20253;-82
2023/01/01 09:59:47;;;;;;;49.97;25.33;;;12.90;92.00;;;;;;5099952;28;20190;-82
2023/01/01 10:02:32;;;;;;;45.03;25.33;;;13.00;92.10;;;;;;5112228;27;20444;-82
2023/01/01 10:05:09;;;;;;;51.60;27.07;;;13.10;91.90;;;;;;5097842;28;20843;-83
2023/01/01 10:07:45;;;;;;;46.07;23.90;;;13.20;92.00;;;;;;5104150;28;20445;-83
2023/01/01 10:10:26;;;;;;;43.60;22.83;;;13.30;91.70;;;;;;5102007;28;20263;-82
2023/01/01 10:13:03;;;;;;;44.07;24.23;;;13.40;91.40;;;;;;5101926;28;20193;-84
2023/01/01 10:15:36;;;;;;;40.47;22.83;;;13.50;91.40;;;;;;5106460;28;20192;-83
2023/01/01 10:18:14;;;;;;;46.22;25.85;;;13.60;91.10;;;;;;5106692;28;20447;-84
2023/01/01 10:20:46;;;;;;;43.20;24.20;;;13.70;90.80;;;;;;5096407;28;20676;-83
2023/01/01 10:23:19;;;;;;;43.40;23.87;;;13.80;91.00;;;;;;5099372;28;20190;-81
2023/01/01 10:25:49;;;;;;;40.17;22.43;;;13.80;90.60;;;;;;5097615;28;20596;-81
2023/01/01 10:28:23;;;;;;;41.83;23.93;;;13.90;90.50;;;;;;5106369;28;20198;-79
2023/01/01 10:30:53;;;;;;;40.90;22.87;;;13.90;90.40;;;;;;5094589;28;20196;-80
2023/01/01 10:33:23;;;;;;;44.37;23.33;;;14.00;90.40;;;;;;5091102;28;20276;-82
2023/01/01 10:35:55;;;;;;;37.97;22.40;;;14.00;90.30;;;;;;5100665;28;20189;-81
2023/01/01 10:38:27;;;;;;;43.53;22.17;;;14.10;90.20;;;;;;5095878;28;20206;-78
2023/01/01 10:41:08;;;;;;;39.58;22.80;;;14.20;90.00;;;;;;5094477;28;20775;-82
2023/01/01 10:43:47;;;;;;;37.83;21.30;;;14.20;90.00;;;;;;5095007;28;20194;-80
2023/01/01 10:46:19;;;;;;;39.43;21.63;;;14.30;90.00;;;;;;5092382;28;20224;-81
2023/01/01 10:49:11;;;;;;;40.57;23.03;;;14.40;90.00;;;;;;5095745;28;20281;-81
2023/01/01 10:51:44;;;;;;;38.07;21.80;;;14.50;90.00;;;;;;5098059;28;20236;-82
2023/01/01 10:54:26;;;;;;;40.97;21.83;;;14.50;90.00;;;;;;5101143;28;20209;-80
2023/01/01 10:57:13;;;;;;;46.03;22.70;;;14.60;89.10;;;;;;5103789;28;20185;-80
2023/01/01 10:59:45;;;;;;;42.97;20.87;;;14.60;89.10;;;;;;5100256;28;20193;-80
2023/01/01 11:02:22;;;;;;;37.87;19.87;;;14.70;88.60;;;;;;5096163;28;20653;-79
2023/01/01 11:04:53;;;;;;;37.42;20.63;;;14.80;88.00;;;;;;5097252;28;20489;-81
2023/01/01 11:07:29;;;;;;;34.40;19.40;;;14.90;88.00;;;;;;5092122;28;20286;-81
2023/01/01 11:10:01;;;;;;;37.87;19.90;;;15.00;87.80;;;;;;5093795;28;20200;-82
2023/01/01 11:12:38;;;;;;;33.33;19.03;;;15.00;87.90;;;;;;5102677;28;20268;-83
2023/01/01 11:15:38;;;;;;;35.10;19.87;;;15.10;87.90;;;;;;5082595;28;20272;-83
2023/01/01 11:18:15;;;;;;;36.03;19.67;;;15.10;87.00;;;;;;5057297;28;20247;-83
2023/01/01 11:20:45;;;;;;;33.73;20.03;;;15.20;87.50;;;;;;5096483;27;20283;-81
2023/01/01 11:23:38;;;;;;;37.83;21.03;;;15.30;87.60;;;;;;5101054;28;20766;-82
2023/01/01 11:26:27;;;;;;;33.97;19.77;;;15.40;87.50;;;;;;5109704;27;20188;-82
2023/01/01 11:29:16;;;;;;;33.93;19.47;;;15.50;87.50;;;;;;5112951;27;20195;-80
2023/01/01 11:31:46;;;;;;;37.73;20.03;;;15.50;87.00;;;;;;5116887;27;20557;-82
2023/01/01 11:34:30;;;;;;;36.63;20.17;;;15.60;86.60;;;;;;5096318;28;20259;-79
2023/01/01 11:37:26;;;;;;;30.97;18.33;;;15.60;86.10;;;;;;5098938;28;20225;-81
2023/01/01 11:39:58;;;;;;;32.43;18.80;;;15.70;86.10;;;;;;5096579;28;20204;-82
2023/01/01 11:42:32;;;;;;;36.30;20.00;;;15.80;86.00;;;;;;5104176;28;20720;-82
2023/01/01 11:45:13;;;;;;;32.50;18.63;;;15.70;85.50;;;;;;5100435;28;20239;-83
2023/01/01 11:47:45;;;;;;;39.23;19.27;;;15.80;85.40;;;;;;5044724;28;20216;-82
2023/01/01 11:50:27;;;;;;;35.10;20.03;;;15.80;85.50;;;;;;5100702;28;20232;-82
2023/01/01 11:52:58;;;;;;;35.37;19.20;;;15.90;85.40;;;;;;5099181;27;20208;-83
2023/01/01 11:55:38;;;;;;;37.93;18.97;;;16.00;85.90;;;;;;5099480;28;20217;-84
2023/01/01 11:58:17;;;;;;;34.03;18.03;;;16.00;85.20;;;;;;5101442;28;20266;-88
2023/01/01 12:00:54;;;;;;;30.83;16.67;;;16.10;85.50;;;;;;5100920;28;20696;-83
2023/01/01 12:03:31;;;;;;;31.30;17.30;;;16.20;85.30;;;;;;5103874;27;20202;-84
2023/01/01 12:06:07;;;;;;;28.07;14.83;;;16.30;84.60;;;;;;5102048;27;20243;-82
2023/01/01 12:08:39;;;;;;;32.13;16.95;;;16.30;83.90;;;;;;5098088;28;20445;-82
2023/01/01 12:11:17;;;;;;;27.30;15.83;;;16.40;83.30;;;;;;5100495;27;20197;-83
2023/01/01 12:13:53;;;;;;;29.67;16.67;;;16.40;83.10;;;;;;5099770;28;20204;-84
2023/01/01 12:16:35;;;;;;;27.40;15.70;;;16.50;82.90;;;;;;5096770;28;20204;-86
2023/01/01 12:19:11;;;;;;;27.80;15.63;;;16.50;83.30;;;;;;5104773;28;20196;-80
2023/01/01 12:21:43;;;;;;;27.43;15.67;;;16.60;83.10;;;;;;5104134;28;20667;-85
2023/01/01 12:24:20;;;;;;;31.60;14.97;;;16.60;82.70;;;;;;5097872;28;20200;-80
2023/01/01 12:27:00;;;;;;;28.90;16.13;;;16.60;82.00;;;;;;5103622;28;20188;-85
2023/01/01 12:30:02;;;;;;;27.27;16.20;;;16.60;82.10;;;;;;5105027;28;20193;-84
2023/01/01 12:32:56;;;;;;;28.97;15.77;;;16.60;82.30;;;;;;5101554;28;20909;-85
2023/01/01 12:35:44;;;;;;;30.03;16.57;;;16.70;82.30;;;;;;5100967;28;20204;-81
2023/01/01 12:38:27;;;;;;;30.53;18.13;;;16.70;82.00;;;;;;5107808;27;20719;-83
2023/01/01 12:41:07;;;;;;;29.70;16.70;;;16.70;82.10;;;;;;5106532;27;20196;-83
2023/01/01 12:43:44;;;;;;;26.33;14.97;;;16.70;81.90;;;;;;5100503;28;20196;-83
2023/01/01 12:46:36;;;;;;;26.77;15.97;;;16.70;81.70;;;;;;5112455;27;20193;-82
2023/01/01 12:49:38;;;;;;;27.03;15.97;;;16.70;82.00;;;;;;5117225;27;20281;-84
2023/01/01 12:52:24;;;;;;;30.53;17.20;;;16.70;82.20;;;;;;5107229;27;20204;-84
2023/01/01 12:55:29;;;;;;;26.97;16.13;;;16.60;82.10;;;;;;5102339;28;20609;-84
2023/01/01 12:58:04;;;;;;;30.17;16.73;;;16.70;82.50;;;;;;5103004;28;20201;-83
2023/01/01 13:00:37;;;;;;;28.00;15.50;;;16.70;82.80;;;;;;5109400;27;20193;-83
2023/01/01 13:03:10;;;;;;;25.70;14.83;;;16.70;82.50;;;;;;5106863;28;20368;-82